CheckWX is a tool to help pilots better visualize weather data.  It is not intended as a substitute for an official pre-flight weather briefing.

17:38:49 UTC

BIVM METAR
Vestmannaeyjar Airport
Vestmannaeyjar, Iceland
Current

39 mins ago

BIVM 211700Z 29005KT 9999 SCT020 13/12 Q1003
Observed
Jul-21 @ 17:00 UTC
Wind
  • 290° at 5 KTS
Visibility
10,000+ meters
Flight Rules
VFR
Cloud Levels
  • Scattered at 2,000' AGL
Temperature
13°C / 55°F
Dewpoint
12°C / 54°F
Humidity
94%
Altimeter
29.62" Hg
Pressure
1002.92 hPa
Previous

2 hours ago

BIVM 211600Z 28009KT 9999 SCT025 13/13 Q1003
Observed
Jul-21 @ 16:00 UTC
Wind
  • 280° at 9 KTS
Visibility
10,000+ meters
Flight Rules
VFR
Cloud Levels
  • Scattered at 2,500' AGL
Temperature
13°C / 55°F
Dewpoint
13°C / 55°F
Humidity
100%
Altimeter
29.62" Hg
Pressure
1002.92 hPa
Previous

3 hours ago

BIVM 211500Z 26007KT 9999 RA FEW008 BKN020 12/12 Q1003
Observed
Jul-21 @ 15:00 UTC
Wind
  • 260° at 7 KTS
Visibility
10,000+ meters
Flight Rules
MVFR
Conditions
Rain
Cloud Levels
  • Few at 800' AGL
  • Broken at 2,000' AGL
Temperature
12°C / 54°F
Dewpoint
12°C / 54°F
Humidity
100%
Altimeter
29.62" Hg
Pressure
1002.92 hPa